This is the latest recevied weather packets stored in our database for station/object OM7AHJ-15. If no packets are shown the sender has not sent any weather packets the latest 10 day(s).
| Time | Temp. | Humidity | Pressure | Rain* | Wind** | Luminosity | Snow |
|---|---|---|---|---|---|---|---|
| 1778147733 | 23.89° C | 38% | 987 hPa | - | - | - | - |
| 1778146833 | 23.89° C | 38% | 987 hPa | - | - | - | - |
| 1778145933 | 23.89° C | 39% | 987 hPa | - | - | - | - |
| 1778145033 | 23.33° C | 39% | 987 hPa | - | - | - | - |
| 1778144133 | 23.89° C | 39% | 987 hPa | - | - | - | - |
| 1778143233 | 23.89° C | 38% | 987 hPa | - | - | - | - |
| 1778142332 | 23.89° C | 38% | 987 hPa | - | - | - | - |
| 1778141432 | 22.78° C | 41% | 987 hPa | - | - | - | - |
| 1778140532 | 23.33° C | 40% | 987 hPa | - | - | - | - |
| 1778139632 | 23.33° C | 41% | 986 hPa | - | - | - | - |
| 1778138732 | 23.89° C | 40% | 986 hPa | - | - | - | - |
| 1778137832 | 23.33° C | 41% | 986 hPa | - | - | - | - |
| 1778136932 | 23.33° C | 41% | 986 hPa | - | - | - | - |
| 1778136032 | 23.89° C | 40% | 986 hPa | - | - | - | - |
| 1778135132 | 23.33° C | 40% | 986 hPa | - | - | - | - |
| 1778134232 | 23.33° C | 41% | 986 hPa | - | - | - | - |
| 1778133332 | 23.89° C | 39% | 986 hPa | - | - | - | - |
| 1778132432 | 23.89° C | 39% | 986 hPa | - | - | - | - |
| 1778131532 | 23.89° C | 39% | 986 hPa | - | - | - | - |
| 1778130632 | 23.89° C | 38% | 986 hPa | - | - | - | - |
| 1778129732 | 23.89° C | 39% | 985 hPa | - | - | - | - |
| 1778128832 | 23.33° C | 39% | 985 hPa | - | - | - | - |
| 1778127931 | 22.78° C | 40% | 985 hPa | - | - | - | - |
| 1778127031 | 23.89° C | 37% | 985 hPa | - | - | - | - |
| 1778126131 | 23.89° C | 37% | 985 hPa | - | - | - | - |
* Rain since midnight (hover to see other rain measurements)
** Current wind speed in m/s (hover to see current wind gust speed)